Pagrindinis puslapis
METAR-TAF:

METAR-TAF

Oro uostai :

Puent Nuaras, Kongas

platuma: 04-49S, ilguma: 011-54E, Aukštis: 17 m

Dabartinis oras

Ataskaita buvo paskelbta 1 valandą ir 42 minutes, ne 01:00 UTC
Vėjas 6 kt iš Pietų, svyruoja nuo Pietų/Pietryčių ir Pietų/Pietvakarių
Temperatūra 24°C
Drėgmė 89%
Slėgis 1014 hPa
Matomumas 10 km arba daugiau
Išsisklaidę debesys ne aukštis 1100 ft
Apsiniaukę ne aukštis 2300 ft

METAR: FCPP 230100Z 19006KT 150V210 9999 SCT011 OVC023 24/22 Q1014 NOSIG

Laikas: 03:42 (02:42 UTC)

Prognozė

Ataskaita buvo paskelbta 3 valandos ir 42 minutes, ne 23:00 UTC
Prognozė galioja nuo 23 metu 00 UTC su 23 metu 24 UTC
Vėjas 4 kt iš Pietų
Matomumas: 8000 m
Išsisklaidę debesys ne aukštis 1000 ft
Su prošvaistėmis ne aukštis 2000 ft

TAF: FCPP 222300Z 2300/2324 18004KT 8000 SCT010 BKN020

Orai ataskaitas ir orų prognozės (METAR, TAF).

turimą stotys yra geltonos ir raudonos taškus žemėlapyje.

Perkelti pele per norėdami pamatyti stoties vardą.

Tada spustelėkite, norėdami matyti oro stebėjimo ir prognozės.

Norėdami pakeisti žemėlapį: spustelėkite ant žalios mygtukų su juodo kryžiaus žemyn,; žalią mygtuką su brūkšneliu, jei norite nutolinti; arba žalių rodyklių gretimoms žemėlapius.


METAR-TAF: